Pinehurst, Massachusetts
Current Conditions -  °F | °C
As of 5:51 AM on Friday 24 Oct 2014 (Local Time) from KBED Reporting Station
Light Rain Light Rain  
Wind Chill: 44°   Ceiling: 1000
Heat Index: 48°   Visibility: 5mi
Dew Point: 48°   Wind: 10mph
Humidity: 100%   Direction: 330°NNW
Pressure: 29.68"   Gusts: NA
Location:  42.53°N, 71.23°W
Report Text: KBED 240951Z AUTO 33009KT 5SM -RA BR BKN010 OVC017 09/09 A2968 RMK AO2 CIG 007V015 P0001 TSNO
Loading
Personal Weather Stations






























Interactive Weather Map
Tropical Storm Tracking
New forecast layout! Learn more

10-Day Weather Forecast

Advertisements
Track Severe Weather on mobile